Time;durP1;ratioP1;P1;durP2;ratioP2;P2;SDS_P1;SDS_P2;PMS_P1;PMS_P2;Temp;Humidity;BMP_temperature;BMP_pressure;BME280_temperature;BME280_humidity;BME280_pressure;Samples;Min_cycle;Max_cycle;Signal;HPM_P1;HPM_P2
2021/04/02 00:01:04;;;;;;;26.50;15.35;;;;;;;;;;5015689;28;20081;-57
2021/04/02 00:03:33;;;;;;;28.60;17.52;;;;;;;;;;5015719;28;20030;-52
2021/04/02 00:05:59;;;;;;;26.77;16.65;;;;;;;;;;5015653;28;20373;-51
2021/04/02 00:08:26;;;;;;;30.08;18.83;;;;;;;;;;5015563;28;20488;-56
2021/04/02 00:10:53;;;;;;;35.17;21.27;;;;;;;;;;5015777;28;20474;-55
2021/04/02 00:13:20;;;;;;;24.50;16.58;;;;;;;;;;5015665;28;20050;-56
2021/04/02 00:15:47;;;;;;;29.27;20.08;;;;;;;;;;4997533;28;20401;-56
2021/04/02 00:18:13;;;;;;;22.40;15.35;;;;;;;;;;5015578;28;20029;-56
2021/04/02 00:20:39;;;;;;;28.88;16.85;;;;;;;;;;5015395;28;20034;-56
2021/04/02 00:23:06;;;;;;;26.27;16.92;;;;;;;;;;5015303;28;20022;-49
2021/04/02 00:25:33;;;;;;;29.45;17.60;;;;;;;;;;5015238;28;20030;-55
2021/04/02 00:27:59;;;;;;;33.33;19.10;;;;;;;;;;5015380;28;20044;-54
2021/04/02 00:30:29;;;;;;;34.97;19.73;;;;;;;;;;5014967;28;20076;-56
2021/04/02 00:32:55;;;;;;;29.88;18.98;;;;;;;;;;5015030;28;20026;-50
2021/04/02 00:35:21;;;;;;;38.40;23.83;;;;;;;;;;5015002;28;20045;-55
2021/04/02 00:37:47;;;;;;;32.15;19.48;;;;;;;;;;5014909;28;20084;-54
2021/04/02 00:40:18;;;;;;;32.83;20.20;;;;;;;;;;5015138;28;20022;-55
2021/04/02 00:42:45;;;;;;;64.65;37.60;;;;;;;;;;5015102;28;20026;-53
2021/04/02 00:45:11;;;;;;;89.20;51.47;;;;;;;;;;5014603;28;20037;-51
2021/04/02 00:47:37;;;;;;;66.03;36.97;;;;;;;;;;5014871;28;20022;-54
2021/04/02 00:50:10;;;;;;;110.03;58.28;;;;;;;;;;5014729;28;20022;-55
2021/04/02 00:52:38;;;;;;;57.35;26.77;;;;;;;;;;5014698;28;20084;-49
2021/04/02 00:55:05;;;;;;;76.18;35.40;;;;;;;;;;5014566;28;20120;-50
2021/04/02 00:57:32;;;;;;;93.68;40.60;;;;;;;;;;5014702;28;20088;-50
2021/04/02 00:59:58;;;;;;;69.07;33.08;;;;;;;;;;5014642;28;20026;-51
2021/04/02 01:02:24;;;;;;;44.92;23.33;;;;;;;;;;5014524;28;20026;-54
2021/04/02 01:04:50;;;;;;;29.05;14.40;;;;;;;;;;5014489;28;20084;-55
2021/04/02 01:07:16;;;;;;;43.85;21.38;;;;;;;;;;5014422;28;20054;-54
2021/04/02 01:09:43;;;;;;;56.22;24.52;;;;;;;;;;5014677;28;20048;-50
2021/04/02 01:12:09;;;;;;;36.78;17.27;;;;;;;;;;5014426;28;20109;-53
2021/04/02 01:14:35;;;;;;;35.97;18.38;;;;;;;;;;5014355;28;20114;-54
2021/04/02 01:17:01;;;;;;;59.30;22.08;;;;;;;;;;5014033;28;20564;-48
2021/04/02 01:19:31;;;;;;;37.55;8.18;;;;;;;;;;5014308;28;20026;-50
2021/04/02 01:22:18;;;;;;;43.58;10.32;;;;;;;;;;5014147;28;20040;-54
2021/04/02 01:25:04;;;;;;;57.95;14.25;;;;;;;;;;5014144;28;20057;-55
2021/04/02 01:27:42;;;;;;;39.72;10.35;;;;;;;;;;5014156;28;20022;-56
2021/04/02 01:30:11;;;;;;;56.63;18.60;;;;;;;;;;5014029;28;20512;-55
2021/04/02 01:32:40;;;;;;;53.05;20.27;;;;;;;;;;5013886;28;20105;-55
2021/04/02 01:35:12;;;;;;;27.48;8.38;;;;;;;;;;5014196;28;20030;-55
2021/04/02 01:37:41;;;;;;;56.00;26.35;;;;;;;;;;5014150;28;20022;-53
2021/04/02 01:40:10;;;;;;;56.42;22.10;;;;;;;;;;5013973;28;20041;-52
2021/04/02 01:42:38;;;;;;;51.83;23.80;;;;;;;;;;5013979;28;20022;-52
2021/04/02 01:45:05;;;;;;;27.13;13.07;;;;;;;;;;5013596;28;20062;-54
2021/04/02 01:47:31;;;;;;;16.83;9.15;;;;;;;;;;5013866;28;20113;-53
2021/04/02 01:49:58;;;;;;;32.75;16.88;;;;;;;;;;5013974;28;20389;-50
2021/04/02 01:52:25;;;;;;;25.45;10.25;;;;;;;;;;5013865;28;20385;-52
2021/04/02 01:54:53;;;;;;;15.18;5.15;;;;;;;;;;5013325;28;20486;-54
2021/04/02 01:57:20;;;;;;;25.08;9.38;;;;;;;;;;5013729;28;20401;-52
2021/04/02 01:59:47;;;;;;;27.20;10.73;;;;;;;;;;5013531;28;20109;-54
2021/04/02 02:02:13;;;;;;;24.00;11.02;;;;;;;;;;5013516;28;20044;-54
2021/04/02 02:04:40;;;;;;;16.60;5.72;;;;;;;;;;5013625;28;20057;-54
2021/04/02 02:07:06;;;;;;;18.38;9.88;;;;;;;;;;5013769;28;20370;-53
2021/04/02 02:09:38;;;;;;;9.05;3.78;;;;;;;;;;5013491;28;20487;-52
2021/04/02 02:12:06;;;;;;;9.52;4.03;;;;;;;;;;5013486;28;20033;-52
2021/04/02 02:14:34;;;;;;;10.70;5.05;;;;;;;;;;5013357;28;20045;-52
2021/04/02 02:17:02;;;;;;;14.35;6.25;;;;;;;;;;5013134;28;20120;-54
2021/04/02 02:19:30;;;;;;;17.17;8.50;;;;;;;;;;5013450;28;20030;-53
2021/04/02 02:21:57;;;;;;;13.43;5.55;;;;;;;;;;5013418;28;20034;-54
2021/04/02 02:24:24;;;;;;;12.02;6.93;;;;;;;;;;5013738;28;20026;-54
2021/04/02 02:26:50;;;;;;;7.57;3.30;;;;;;;;;;5013532;28;20032;-54
2021/04/02 02:29:16;;;;;;;8.75;4.00;;;;;;;;;;4995482;28;20040;-54
2021/04/02 02:31:43;;;;;;;7.97;4.07;;;;;;;;;;5013384;28;20033;-55
2021/04/02 02:34:09;;;;;;;10.73;3.30;;;;;;;;;;4995671;28;20394;-54
2021/04/02 02:36:36;;;;;;;11.00;4.15;;;;;;;;;;5013418;28;20432;-55
2021/04/02 02:39:07;;;;;;;7.65;3.78;;;;;;;;;;5013495;28;20029;-54
2021/04/02 02:41:33;;;;;;;11.52;5.88;;;;;;;;;;5013309;28;20030;-54
2021/04/02 02:43:59;;;;;;;10.73;3.70;;;;;;;;;;5013097;28;20033;-53
2021/04/02 02:46:25;;;;;;;5.97;2.80;;;;;;;;;;5013169;28;20108;-53
2021/04/02 02:48:53;;;;;;;11.32;2.78;;;;;;;;;;5013185;28;20399;-53
2021/04/02 02:51:19;;;;;;;8.95;2.58;;;;;;;;;;5013221;28;20026;-54
2021/04/02 02:53:46;;;;;;;6.13;2.75;;;;;;;;;;5013256;28;20030;-53
2021/04/02 02:56:12;;;;;;;8.70;2.85;;;;;;;;;;5013242;28;20038;-52
2021/04/02 02:58:39;;;;;;;7.20;3.50;;;;;;;;;;5013157;28;20160;-54
2021/04/02 03:01:07;;;;;;;17.67;4.03;;;;;;;;;;5013014;28;20466;-52
2021/04/02 03:03:33;;;;;;;8.93;2.45;;;;;;;;;;5013357;28;20105;-53
2021/04/02 03:06:00;;;;;;;13.32;4.28;;;;;;;;;;5014992;28;20069;-53
2021/04/02 03:08:29;;;;;;;10.00;3.10;;;;;;;;;;5016694;28;20101;-53
2021/04/02 03:10:56;;;;;;;8.82;4.63;;;;;;;;;;5016794;28;20386;-53
2021/04/02 03:13:23;;;;;;;9.82;4.32;;;;;;;;;;5016677;28;20407;-53
2021/04/02 03:15:50;;;;;;;13.27;4.47;;;;;;;;;;5016393;28;20042;-53
2021/04/02 03:18:17;;;;;;;13.73;4.70;;;;;;;;;;5016786;28;20033;-53
2021/04/02 03:20:45;;;;;;;11.35;4.00;;;;;;;;;;5016783;28;20382;-54
2021/04/02 03:23:12;;;;;;;8.52;3.25;;;;;;;;;;5016533;28;20018;-53
2021/04/02 03:25:39;;;;;;;9.20;2.90;;;;;;;;;;5016389;28;20030;-53
2021/04/02 03:28:05;;;;;;;11.77;3.85;;;;;;;;;;5016408;28;20113;-53
2021/04/02 03:30:32;;;;;;;10.35;3.85;;;;;;;;;;5016459;28;20382;-54
2021/04/02 03:33:13;;;;;;;14.25;5.63;;;;;;;;;;5016489;28;20041;-54
2021/04/02 03:35:40;;;;;;;9.15;3.95;;;;;;;;;;5016307;28;20112;-53
2021/04/02 03:38:10;;;;;;;10.10;4.72;;;;;;;;;;5016251;28;20113;-52
2021/04/02 03:40:36;;;;;;;8.88;4.53;;;;;;;;;;5016096;28;20041;-53
2021/04/02 03:43:02;;;;;;;11.15;7.45;;;;;;;;;;5016408;28;20048;-53
2021/04/02 03:45:32;;;;;;;26.50;14.77;;;;;;;;;;5016185;28;20388;-53
2021/04/02 03:48:01;;;;;;;18.55;14.43;;;;;;;;;;5016077;28;20402;-53
2021/04/02 03:50:30;;;;;;;23.50;11.27;;;;;;;;;;5016048;28;20076;-53
2021/04/02 03:53:08;;;;;;;17.13;11.00;;;;;;;;;;5016118;28;20049;-54
2021/04/02 03:55:36;;;;;;;20.38;9.43;;;;;;;;;;5016102;28;20056;-52
2021/04/02 03:58:02;;;;;;;20.42;9.02;;;;;;;;;;5016085;28;20369;-52
2021/04/02 04:00:38;;;;;;;17.95;8.10;;;;;;;;;;5016080;28;20057;-53
2021/04/02 04:03:05;;;;;;;15.48;6.35;;;;;;;;;;5015885;28;20064;-51
2021/04/02 04:05:32;;;;;;;15.82;6.35;;;;;;;;;;5015721;28;20474;-53
2021/04/02 04:07:58;;;;;;;16.00;7.00;;;;;;;;;;5015659;28;20022;-53
2021/04/02 04:10:24;;;;;;;14.55;8.10;;;;;;;;;;5015610;28;20037;-53
2021/04/02 04:12:53;;;;;;;15.85;6.18;;;;;;;;;;5015692;28;20553;-54
2021/04/02 04:15:22;;;;;;;11.20;5.22;;;;;;;;;;5015437;28;20482;-51
2021/04/02 04:17:48;;;;;;;14.23;5.57;;;;;;;;;;5015034;28;20057;-53
2021/04/02 04:20:16;;;;;;;11.30;5.82;;;;;;;;;;5015474;28;20367;-52
2021/04/02 04:22:43;;;;;;;14.23;5.90;;;;;;;;;;5015293;28;20541;-54
2021/04/02 04:25:11;;;;;;;8.65;5.30;;;;;;;;;;5015512;28;20029;-52
2021/04/02 04:27:39;;;;;;;14.20;6.15;;;;;;;;;;5015526;28;20025;-55
2021/04/02 04:30:05;;;;;;;10.15;5.45;;;;;;;;;;5015223;28;20030;-54
2021/04/02 04:32:32;;;;;;;12.20;5.60;;;;;;;;;;5015126;28;20029;-54
2021/04/02 04:34:58;;;;;;;12.63;5.75;;;;;;;;;;5015114;28;20482;-54
2021/04/02 04:37:25;;;;;;;11.52;6.22;;;;;;;;;;5015109;28;20022;-54
2021/04/02 04:39:51;;;;;;;15.88;7.00;;;;;;;;;;5015341;28;20029;-54
2021/04/02 04:42:19;;;;;;;12.65;6.35;;;;;;;;;;5015137;28;20410;-54
2021/04/02 04:44:48;;;;;;;13.23;6.38;;;;;;;;;;4997368;28;20028;-54
2021/04/02 04:47:14;;;;;;;15.25;6.53;;;;;;;;;;5014776;28;20054;-55
2021/04/02 04:49:40;;;;;;;13.65;6.95;;;;;;;;;;5014910;28;20026;-55
2021/04/02 04:52:07;;;;;;;9.32;5.80;;;;;;;;;;5014726;28;20029;-53
2021/04/02 04:54:34;;;;;;;9.73;5.07;;;;;;;;;;5014911;28;20033;-54
2021/04/02 04:57:00;;;;;;;7.38;4.10;;;;;;;;;;5014901;28;20018;-52
2021/04/02 04:59:27;;;;;;;10.95;4.20;;;;;;;;;;5014633;28;20041;-55
2021/04/02 05:01:55;;;;;;;13.65;4.85;;;;;;;;;;5014704;28;20029;-55
2021/04/02 05:04:23;;;;;;;10.10;4.07;;;;;;;;;;5014888;28;20045;-55
2021/04/02 05:06:53;;;;;;;11.13;3.80;;;;;;;;;;5014585;28;20110;-55
2021/04/02 05:09:20;;;;;;;8.17;3.53;;;;;;;;;;5014757;28;20025;-55
2021/04/02 05:11:46;;;;;;;11.50;3.65;;;;;;;;;;5014550;28;20442;-54
2021/04/02 05:14:13;;;;;;;10.18;3.60;;;;;;;;;;5014764;28;20053;-51
2021/04/02 05:16:41;;;;;;;9.98;3.75;;;;;;;;;;5014226;28;20546;-54
2021/04/02 05:19:07;;;;;;;8.40;3.47;;;;;;;;;;5014398;28;20478;-54
2021/04/02 05:21:33;;;;;;;7.57;3.03;;;;;;;;;;5014189;28;20030;-53
2021/04/02 05:23:59;;;;;;;6.20;3.60;;;;;;;;;;5014314;28;20034;-55
2021/04/02 05:26:26;;;;;;;9.10;4.00;;;;;;;;;;5014266;28;20025;-55
2021/04/02 05:28:52;;;;;;;7.53;3.88;;;;;;;;;;5013684;28;20079;-55
2021/04/02 05:31:18;;;;;;;13.48;6.05;;;;;;;;;;5014023;28;20428;-51
2021/04/02 05:33:44;;;;;;;12.63;5.97;;;;;;;;;;5014092;28;20022;-53
2021/04/02 05:36:11;;;;;;;16.52;5.10;;;;;;;;;;5013986;28;20033;-53
2021/04/02 05:38:37;;;;;;;8.55;4.63;;;;;;;;;;5014057;28;20026;-52
2021/04/02 05:41:08;;;;;;;19.25;6.43;;;;;;;;;;5014325;28;20436;-55
2021/04/02 05:43:38;;;;;;;24.02;10.57;;;;;;;;;;5014028;28;20037;-55
2021/04/02 05:46:04;;;;;;;14.13;8.20;;;;;;;;;;5013718;28;20394;-52
2021/04/02 05:48:32;;;;;;;16.75;8.25;;;;;;;;;;5013879;28;20030;-54
2021/04/02 05:50:58;;;;;;;12.38;7.18;;;;;;;;;;5013737;28;20021;-54
2021/04/02 05:53:25;;;;;;;13.82;7.97;;;;;;;;;;5013914;28;20439;-54
2021/04/02 05:55:51;;;;;;;14.73;6.90;;;;;;;;;;5013929;28;20061;-54
2021/04/02 05:58:18;;;;;;;10.15;6.22;;;;;;;;;;5013799;28;20488;-53
2021/04/02 06:00:44;;;;;;;8.38;5.95;;;;;;;;;;5013705;28;20034;-54
2021/04/02 06:03:10;;;;;;;11.02;5.93;;;;;;;;;;5013647;28;20053;-54
2021/04/02 06:05:37;;;;;;;8.38;5.82;;;;;;;;;;5013641;28;20022;-54
2021/04/02 06:08:04;;;;;;;9.02;5.07;;;;;;;;;;5013591;28;20105;-54
2021/04/02 06:10:33;;;;;;;12.07;5.60;;;;;;;;;;5013763;28;20223;-55
2021/04/02 06:12:59;;;;;;;11.20;4.85;;;;;;;;;;5013690;28;20026;-55
2021/04/02 06:15:25;;;;;;;14.20;5.63;;;;;;;;;;5013222;28;20044;-53
2021/04/02 06:18:01;;;;;;;15.55;9.40;;;;;;;;;;5013445;28;20105;-51
2021/04/02 06:20:28;;;;;;;16.05;8.73;;;;;;;;;;5013466;28;20030;-53
2021/04/02 06:23:14;;;;;;;14.13;6.68;;;;;;;;;;5013543;28;20044;-49
2021/04/02 06:25:46;;;;;;;12.02;6.50;;;;;;;;;;5013778;28;20037;-55
2021/04/02 06:28:14;;;;;;;10.48;5.28;;;;;;;;;;5013451;28;20057;-55
2021/04/02 06:30:41;;;;;;;12.23;5.30;;;;;;;;;;5013781;28;20423;-55
2021/04/02 06:33:08;;;;;;;13.25;5.78;;;;;;;;;;4995672;28;20441;-55
2021/04/02 06:35:36;;;;;;;19.13;7.05;;;;;;;;;;5013354;28;20048;-54
2021/04/02 06:38:02;;;;;;;12.50;8.02;;;;;;;;;;5013627;28;20109;-56
2021/04/02 06:40:30;;;;;;;15.23;8.30;;;;;;;;;;4998449;28;20029;-53
2021/04/02 06:42:58;;;;;;;18.10;7.80;;;;;;;;;;5017156;28;20036;-56
2021/04/02 06:45:24;;;;;;;12.93;7.53;;;;;;;;;;5017176;28;20517;-57
2021/04/02 06:47:50;;;;;;;11.30;6.13;;;;;;;;;;5017077;28;20037;-55
2021/04/02 06:50:27;;;;;;;15.48;7.32;;;;;;;;;;5017149;28;20113;-56
2021/04/02 06:52:54;;;;;;;15.23;7.93;;;;;;;;;;5017041;28;20025;-54
2021/04/02 06:55:20;;;;;;;31.75;16.35;;;;;;;;;;5012691;28;20486;-54
2021/04/02 06:57:48;;;;;;;25.63;12.98;;;;;;;;;;5007232;28;20097;-55
2021/04/02 07:00:17;;;;;;;35.65;16.92;;;;;;;;;;5005378;28;20037;-55
2021/04/02 07:02:47;;;;;;;24.10;12.57;;;;;;;;;;4989403;28;20024;-55
2021/04/02 07:05:15;;;;;;;26.45;13.10;;;;;;;;;;5007392;28;20021;-54
2021/04/02 07:07:44;;;;;;;26.67;13.32;;;;;;;;;;5006463;28;20022;-54
2021/04/02 07:10:11;;;;;;;30.25;13.27;;;;;;;;;;5005630;28;20041;-54
2021/04/02 07:12:38;;;;;;;25.73;12.55;;;;;;;;;;5008070;28;20023;-54
2021/04/02 07:15:07;;;;;;;23.48;12.82;;;;;;;;;;5006050;28;20121;-54
2021/04/02 07:17:34;;;;;;;25.75;11.82;;;;;;;;;;5006979;28;20081;-54
2021/04/02 07:20:01;;;;;;;20.05;10.63;;;;;;;;;;5006073;28;20034;-53
2021/04/02 07:22:28;;;;;;;26.92;12.70;;;;;;;;;;5007337;28;20034;-54
2021/04/02 07:24:54;;;;;;;28.85;12.65;;;;;;;;;;5016047;28;20061;-53
2021/04/02 07:27:20;;;;;;;49.58;22.88;;;;;;;;;;5016007;28;20104;-53
2021/04/02 07:29:46;;;;;;;36.45;17.88;;;;;;;;;;5016162;28;20037;-53
2021/04/02 07:32:12;;;;;;;36.97;18.10;;;;;;;;;;5016134;28;20390;-54
2021/04/02 07:34:39;;;;;;;62.22;30.02;;;;;;;;;;5016181;28;20033;-54
2021/04/02 07:37:05;;;;;;;81.70;42.38;;;;;;;;;;5016198;28;20034;-53
2021/04/02 07:39:33;;;;;;;53.95;29.27;;;;;;;;;;5015968;28;20113;-55
2021/04/02 07:41:59;;;;;;;75.85;46.42;;;;;;;;;;5015910;28;20033;-57
2021/04/02 07:44:26;;;;;;;88.57;52.13;;;;;;;;;;5016207;28;20484;-54
2021/04/02 07:47:07;;;;;;;91.63;54.45;;;;;;;;;;5015683;28;20029;-55
2021/04/02 07:49:33;;;;;;;63.53;40.97;;;;;;;;;;5015929;28;20053;-54
2021/04/02 07:52:00;;;;;;;89.88;52.60;;;;;;;;;;5015181;28;20038;-53
2021/04/02 07:54:33;;;;;;;76.95;46.45;;;;;;;;;;5015394;28;20025;-55
2021/04/02 07:57:04;;;;;;;68.18;37.40;;;;;;;;;;5015615;28;20374;-55
2021/04/02 07:59:37;;;;;;;43.60;26.30;;;;;;;;;;5015794;28;20060;-53
2021/04/02 08:02:04;;;;;;;89.50;60.10;;;;;;;;;;5015377;28;20106;-55
2021/04/02 08:04:36;;;;;;;67.60;41.40;;;;;;;;;;5015525;28;20021;-52
2021/04/02 08:07:02;;;;;;;60.85;36.75;;;;;;;;;;5015786;28;20025;-53
2021/04/02 08:09:28;;;;;;;86.57;52.10;;;;;;;;;;5015431;28;20474;-55
2021/04/02 08:11:57;;;;;;;67.18;39.67;;;;;;;;;;5015501;28;20105;-52
2021/04/02 08:14:34;;;;;;;104.22;63.28;;;;;;;;;;5015374;28;20054;-55
2021/04/02 08:17:00;;;;;;;68.55;37.60;;;;;;;;;;5015172;28;20518;-54
2021/04/02 08:19:30;;;;;;;83.78;54.00;;;;;;;;;;5015135;28;20041;-52
2021/04/02 08:21:59;;;;;;;102.03;62.40;;;;;;;;;;5015159;28;20030;-53
2021/04/02 08:24:28;;;;;;;46.60;26.55;;;;;;;;;;5014713;28;20022;-53
2021/04/02 08:26:55;;;;;;;64.47;41.55;;;;;;;;;;5015227;28;20175;-53
2021/04/02 08:29:22;;;;;;;56.63;32.53;;;;;;;;;;5015304;28;20013;-53
2021/04/02 08:31:50;;;;;;;33.22;20.63;;;;;;;;;;4997144;28;20446;-53
2021/04/02 08:34:20;;;;;;;43.28;26.60;;;;;;;;;;5014912;28;20033;-53
2021/04/02 08:36:47;;;;;;;46.08;26.67;;;;;;;;;;5014930;28;20473;-52
2021/04/02 08:39:16;;;;;;;80.03;50.97;;;;;;;;;;5015178;28;20105;-53
2021/04/02 08:41:42;;;;;;;45.30;28.67;;;;;;;;;;5014836;28;20040;-54
2021/04/02 08:44:08;;;;;;;69.63;40.70;;;;;;;;;;5014779;28;20030;-52
2021/04/02 08:46:35;;;;;;;77.03;45.85;;;;;;;;;;5014612;28;20576;-54
2021/04/02 08:49:01;;;;;;;66.55;39.30;;;;;;;;;;5014565;28;20061;-55
2021/04/02 08:51:27;;;;;;;101.78;65.20;;;;;;;;;;4997086;28;20025;-56
2021/04/02 08:53:53;;;;;;;79.85;49.65;;;;;;;;;;5014584;28;20037;-56
2021/04/02 08:56:21;;;;;;;172.55;97.07;;;;;;;;;;5014493;28;20038;-54
2021/04/02 08:58:47;;;;;;;111.85;67.85;;;;;;;;;;5014536;28;20018;-54
2021/04/02 09:01:16;;;;;;;110.13;69.80;;;;;;;;;;5014562;28;20032;-53
2021/04/02 09:03:42;;;;;;;53.22;31.02;;;;;;;;;;5013477;28;20021;-56
2021/04/02 09:06:09;;;;;;;46.30;23.83;;;;;;;;;;5014373;28;20029;-55
2021/04/02 09:08:38;;;;;;;34.08;15.35;;;;;;;;;;4996582;28;20045;-55
2021/04/02 09:11:11;;;;;;;50.50;21.77;;;;;;;;;;4996896;28;20033;-54
2021/04/02 09:13:37;;;;;;;49.13;22.60;;;;;;;;;;5014699;28;20390;-56
2021/04/02 09:16:10;;;;;;;31.52;17.63;;;;;;;;;;5014271;28;20104;-56
2021/04/02 09:18:45;;;;;;;32.08;17.55;;;;;;;;;;5014422;28;20416;-55
2021/04/02 09:21:12;;;;;;;32.20;15.32;;;;;;;;;;5014362;28;20508;-53
2021/04/02 09:23:38;;;;;;;34.08;17.02;;;;;;;;;;5014313;28;20489;-53
2021/04/02 09:26:07;;;;;;;34.70;16.35;;;;;;;;;;5014502;28;20113;-53
2021/04/02 09:28:35;;;;;;;32.22;17.00;;;;;;;;;;5014366;28;20022;-54
2021/04/02 09:31:33;;;;;;;26.52;15.00;;;;;;;;;;5014170;28;20049;-54
2021/04/02 09:34:01;;;;;;;29.52;14.95;;;;;;;;;;4915674;29;20528;-51
2021/04/02 09:36:29;;;;;;;32.63;14.80;;;;;;;;;;4915771;29;20101;-54
2021/04/02 09:39:05;;;;;;;26.73;13.30;;;;;;;;;;4915548;29;20028;-55
2021/04/02 09:41:32;;;;;;;29.83;15.77;;;;;;;;;;4915493;29;20042;-53
2021/04/02 09:44:07;;;;;;;27.50;13.45;;;;;;;;;;4915521;29;20043;-53
2021/04/02 09:46:35;;;;;;;35.20;15.52;;;;;;;;;;4915355;29;20036;-56
2021/04/02 09:49:02;;;;;;;28.80;16.00;;;;;;;;;;4915360;29;20036;-54
2021/04/02 09:51:28;;;;;;;33.72;16.85;;;;;;;;;;4915467;29;20079;-54
2021/04/02 09:53:54;;;;;;;30.45;15.90;;;;;;;;;;4915404;29;20110;-52
2021/04/02 09:56:20;;;;;;;25.15;13.82;;;;;;;;;;4915338;29;20415;-55
2021/04/02 09:58:46;;;;;;;27.52;15.70;;;;;;;;;;4915358;29;20043;-54
2021/04/02 10:01:12;;;;;;;25.20;14.10;;;;;;;;;;4915313;29;20144;-53
2021/04/02 10:03:38;;;;;;;31.55;14.15;;;;;;;;;;4915544;29;20552;-53
2021/04/02 10:06:04;;;;;;;23.98;13.48;;;;;;;;;;4915234;29;20032;-53
2021/04/02 10:08:30;;;;;;;30.70;17.27;;;;;;;;;;4921020;28;20024;-54
2021/04/02 10:10:57;;;;;;;35.45;14.80;;;;;;;;;;5013772;28;20061;-53
2021/04/02 10:13:23;;;;;;;25.25;14.00;;;;;;;;;;5013495;28;20025;-52
2021/04/02 10:15:49;;;;;;;25.67;14.68;;;;;;;;;;4991683;28;20078;-54
2021/04/02 10:18:17;;;;;;;30.20;14.40;;;;;;;;;;5013080;28;20072;-54
2021/04/02 10:20:43;;;;;;;24.80;14.68;;;;;;;;;;5013599;28;20535;-54
2021/04/02 10:23:09;;;;;;;24.52;13.40;;;;;;;;;;5013601;28;20022;-54
2021/04/02 10:25:35;;;;;;;25.50;14.93;;;;;;;;;;5013494;28;20051;-54
2021/04/02 10:28:03;;;;;;;26.42;15.07;;;;;;;;;;5013418;28;20466;-54
2021/04/02 10:30:29;;;;;;;23.50;14.45;;;;;;;;;;5013692;28;20104;-54
2021/04/02 10:32:56;;;;;;;26.50;13.98;;;;;;;;;;5013567;28;20129;-54
2021/04/02 10:35:22;;;;;;;22.20;13.48;;;;;;;;;;5013562;28;20429;-54
2021/04/02 10:37:48;;;;;;;30.05;14.25;;;;;;;;;;5013326;28;20026;-54
2021/04/02 10:40:15;;;;;;;24.38;12.90;;;;;;;;;;5013206;28;20038;-54
2021/04/02 10:42:41;;;;;;;26.67;14.02;;;;;;;;;;5013608;28;20101;-55
2021/04/02 10:45:07;;;;;;;27.63;13.95;;;;;;;;;;5013330;28;20413;-55
2021/04/02 10:47:33;;;;;;;24.80;14.35;;;;;;;;;;5013392;28;20034;-55
2021/04/02 10:49:59;;;;;;;28.23;14.13;;;;;;;;;;5013223;28;20026;-55
2021/04/02 10:52:25;;;;;;;26.95;14.98;;;;;;;;;;5013191;28;20501;-55
2021/04/02 10:54:51;;;;;;;27.60;15.63;;;;;;;;;;5013155;28;20033;-56
2021/04/02 10:57:17;;;;;;;30.95;14.40;;;;;;;;;;5013058;28;20025;-54
2021/04/02 10:59:43;;;;;;;29.73;15.15;;;;;;;;;;5013177;28;20026;-56
2021/04/02 11:02:10;;;;;;;23.85;15.18;;;;;;;;;;5013290;28;20411;-56
2021/04/02 11:04:40;;;;;;;25.65;13.90;;;;;;;;;;5013080;28;20462;-55
2021/04/02 11:07:06;;;;;;;30.38;15.00;;;;;;;;;;5013325;28;20030;-55
2021/04/02 11:09:32;;;;;;;26.85;14.95;;;;;;;;;;5013306;28;20018;-55
2021/04/02 11:11:58;;;;;;;26.10;15.48;;;;;;;;;;5013284;28;20029;-53
2021/04/02 11:14:26;;;;;;;40.22;16.67;;;;;;;;;;5012973;28;20022;-54
2021/04/02 11:16:52;;;;;;;37.72;15.52;;;;;;;;;;5012598;28;20184;-55
2021/04/02 11:19:18;;;;;;;28.73;15.95;;;;;;;;;;5012922;28;20040;-53
2021/04/02 11:21:44;;;;;;;28.27;16.27;;;;;;;;;;5012950;28;20104;-53
2021/04/02 11:24:11;;;;;;;28.20;15.52;;;;;;;;;;5012972;28;20029;-56
2021/04/02 11:26:37;;;;;;;25.58;15.10;;;;;;;;;;5014106;28;20022;-54
2021/04/02 11:29:03;;;;;;;30.48;15.40;;;;;;;;;;5016238;28;20029;-56
2021/04/02 11:31:29;;;;;;;26.00;15.38;;;;;;;;;;5016687;28;20040;-54
2021/04/02 11:33:55;;;;;;;24.35;15.07;;;;;;;;;;5016239;28;20075;-54
2021/04/02 11:36:21;;;;;;;27.50;14.25;;;;;;;;;;5016268;28;20042;-54
2021/04/02 11:38:48;;;;;;;24.50;12.68;;;;;;;;;;5016288;28;20025;-56
2021/04/02 11:41:14;;;;;;;24.48;13.65;;;;;;;;;;5016201;28;20099;-55
2021/04/02 11:43:40;;;;;;;27.33;14.48;;;;;;;;;;5016100;28;20014;-54
2021/04/02 11:46:06;;;;;;;37.25;14.02;;;;;;;;;;5016131;28;20363;-56
2021/04/02 11:48:33;;;;;;;29.20;14.25;;;;;;;;;;5015988;28;20037;-55
2021/04/02 11:50:59;;;;;;;26.55;13.88;;;;;;;;;;5016225;28;20018;-55
2021/04/02 11:53:25;;;;;;;26.75;14.05;;;;;;;;;;5016080;28;20028;-55
2021/04/02 11:55:52;;;;;;;32.72;13.23;;;;;;;;;;5015922;28;20044;-54
2021/04/02 11:58:18;;;;;;;30.70;13.77;;;;;;;;;;5015854;28;20040;-55
2021/04/02 12:00:44;;;;;;;29.05;12.13;;;;;;;;;;5015855;28;20026;-54
2021/04/02 12:03:12;;;;;;;25.33;11.77;;;;;;;;;;5015664;28;20382;-55
2021/04/02 12:05:38;;;;;;;27.52;13.07;;;;;;;;;;5015669;28;20061;-54
2021/04/02 12:08:05;;;;;;;25.90;12.18;;;;;;;;;;5015954;28;20029;-55
2021/04/02 12:10:31;;;;;;;24.02;13.75;;;;;;;;;;5015743;28;20025;-55
2021/04/02 12:12:57;;;;;;;41.25;14.95;;;;;;;;;;5012476;28;20030;-57
2021/04/02 12:15:23;;;;;;;37.95;20.83;;;;;;;;;;5005144;28;20025;-56
2021/04/02 12:17:49;;;;;;;228.57;147.07;;;;;;;;;;4986598;28;20090;-58
2021/04/02 12:20:16;;;;;;;154.23;97.05;;;;;;;;;;4984632;28;20360;-56
2021/04/02 12:22:43;;;;;;;68.80;33.35;;;;;;;;;;4982628;28;20026;-56
2021/04/02 12:25:10;;;;;;;194.90;142.55;;;;;;;;;;4978838;28;20868;-54
2021/04/02 12:27:37;;;;;;;119.40;61.78;;;;;;;;;;4978224;28;20470;-55
2021/04/02 12:30:05;;;;;;;180.73;106.03;;;;;;;;;;4978396;28;20076;-57
2021/04/02 12:32:33;;;;;;;128.25;81.20;;;;;;;;;;4950070;28;20419;-56
2021/04/02 12:35:02;;;;;;;105.53;61.50;;;;;;;;;;4978331;28;20037;-56
2021/04/02 12:37:28;;;;;;;188.68;117.07;;;;;;;;;;4977633;28;20026;-55
2021/04/02 12:39:54;;;;;;;118.55;77.72;;;;;;;;;;4978479;28;20026;-55
2021/04/02 12:42:20;;;;;;;159.43;96.60;;;;;;;;;;4978484;28;20537;-55
2021/04/02 12:44:46;;;;;;;199.43;126.90;;;;;;;;;;4978162;28;20022;-55
2021/04/02 12:47:12;;;;;;;60.72;32.85;;;;;;;;;;4977917;28;20034;-58
2021/04/02 12:49:38;;;;;;;46.00;19.73;;;;;;;;;;4977850;28;21693;-55
2021/04/02 12:52:07;;;;;;;30.35;14.60;;;;;;;;;;4978247;28;20030;-55
2021/04/02 12:54:33;;;;;;;34.28;17.30;;;;;;;;;;4978403;28;20516;-56
2021/04/02 12:56:59;;;;;;;29.73;17.52;;;;;;;;;;4978029;28;20041;-54
2021/04/02 12:59:25;;;;;;;35.60;17.60;;;;;;;;;;4977611;28;20022;-54
2021/04/02 13:01:51;;;;;;;59.65;31.17;;;;;;;;;;4978013;28;20054;-54
2021/04/02 13:04:17;;;;;;;59.63;34.00;;;;;;;;;;4976203;28;20029;-54
2021/04/02 13:06:43;;;;;;;49.15;26.85;;;;;;;;;;4977813;28;20049;-57
2021/04/02 13:09:10;;;;;;;63.47;34.53;;;;;;;;;;4977848;28;20089;-59
2021/04/02 13:11:36;;;;;;;70.20;41.45;;;;;;;;;;4977704;28;20155;-57
2021/04/02 13:14:02;;;;;;;47.03;22.55;;;;;;;;;;4977702;28;20466;-57
2021/04/02 13:16:28;;;;;;;36.08;18.50;;;;;;;;;;4986242;28;20053;-61
2021/04/02 13:18:54;;;;;;;45.08;21.63;;;;;;;;;;4997634;28;20025;-56
2021/04/02 13:21:20;;;;;;;34.53;17.65;;;;;;;;;;4996951;28;20103;-55
2021/04/02 13:23:46;;;;;;;32.97;18.05;;;;;;;;;;4979115;28;20117;-56
2021/04/02 13:26:12;;;;;;;31.75;15.30;;;;;;;;;;4996980;28;20029;-56
2021/04/02 13:28:38;;;;;;;57.00;29.38;;;;;;;;;;4997058;28;20033;-57
2021/04/02 13:31:05;;;;;;;32.38;14.88;;;;;;;;;;4997029;28;20533;-57
2021/04/02 13:33:31;;;;;;;24.55;13.00;;;;;;;;;;4996956;28;20021;-56
2021/04/02 13:35:57;;;;;;;27.88;11.50;;;;;;;;;;4996996;28;20069;-58
2021/04/02 13:38:24;;;;;;;28.80;16.55;;;;;;;;;;4997065;28;20018;-59
2021/04/02 13:40:50;;;;;;;38.80;21.02;;;;;;;;;;4997104;28;20460;-55
2021/04/02 13:43:16;;;;;;;41.15;21.85;;;;;;;;;;4996851;28;20029;-66
2021/04/02 13:45:42;;;;;;;59.97;25.30;;;;;;;;;;4996879;28;20026;-58
2021/04/02 13:48:09;;;;;;;50.55;27.88;;;;;;;;;;4996867;28;20317;-54
2021/04/02 13:50:35;;;;;;;32.55;17.80;;;;;;;;;;4995877;28;20037;-58
2021/04/02 13:53:01;;;;;;;58.53;28.38;;;;;;;;;;4996719;28;20021;-57
2021/04/02 13:55:28;;;;;;;26.95;14.60;;;;;;;;;;4996658;28;20044;-56
2021/04/02 13:57:54;;;;;;;43.10;20.20;;;;;;;;;;4996342;28;20533;-56
2021/04/02 14:00:22;;;;;;;31.73;18.63;;;;;;;;;;4996448;28;20036;-56
2021/04/02 14:02:48;;;;;;;135.18;83.20;;;;;;;;;;4996601;28;20088;-56
2021/04/02 14:05:16;;;;;;;43.00;22.17;;;;;;;;;;4996569;28;20034;-56
2021/04/02 14:07:42;;;;;;;70.13;40.00;;;;;;;;;;4996675;28;20037;-56
2021/04/02 14:10:15;;;;;;;38.63;21.55;;;;;;;;;;4996295;28;20032;-58
2021/04/02 14:12:41;;;;;;;70.53;41.08;;;;;;;;;;4996721;28;20529;-55
2021/04/02 14:15:19;;;;;;;44.60;25.23;;;;;;;;;;4996149;28;20049;-54
2021/04/02 14:17:45;;;;;;;56.00;31.35;;;;;;;;;;4996218;28;20453;-57
2021/04/02 14:20:16;;;;;;;46.70;27.90;;;;;;;;;;4994950;28;20026;-58
2021/04/02 14:22:42;;;;;;;72.93;44.92;;;;;;;;;;4996313;28;20030;-56